Time;durP1;ratioP1;P1;durP2;ratioP2;P2;SDS_P1;SDS_P2;PMS_P1;PMS_P2;Temp;Humidity;BMP_temperature;BMP_pressure;BME280_temperature;BME280_humidity;BME280_pressure;Samples;Min_cycle;Max_cycle;Signal;HPM_P1;HPM_P2
2022/07/11 00:02:06;;;;;;;3.70;1.20;;;20.40;90.90;;;;;;5084377;28;20143;-69
2022/07/11 00:04:33;;;;;;;3.05;1.20;;;20.50;91.00;;;;;;5092026;28;20383;-68
2022/07/11 00:06:59;;;;;;;1.88;1.25;;;20.40;91.00;;;;;;5090369;28;20030;-69
2022/07/11 00:09:25;;;;;;;2.28;1.88;;;20.40;91.00;;;;;;5089582;28;20028;-69
2022/07/11 00:11:51;;;;;;;1.98;1.38;;;20.30;91.00;;;;;;5092333;28;20028;-68
2022/07/11 00:14:18;;;;;;;1.92;1.30;;;20.40;91.00;;;;;;5090299;28;20058;-69
2022/07/11 00:16:50;;;;;;;4.22;1.77;;;20.30;91.00;;;;;;5091395;28;20445;-68
2022/07/11 00:19:16;;;;;;;3.15;1.60;;;20.30;91.40;;;;;;5091221;28;20076;-69
2022/07/11 00:21:42;;;;;;;5.55;1.65;;;20.30;91.20;;;;;;5090948;28;20422;-69
2022/07/11 00:24:08;;;;;;;6.25;1.48;;;20.30;91.30;;;;;;5090103;28;20035;-69
2022/07/11 00:26:37;;;;;;;6.57;1.77;;;20.30;91.40;;;;;;5078715;28;20055;-69
2022/07/11 00:29:04;;;;;;;3.50;1.80;;;20.30;91.50;;;;;;5089469;28;20117;-69
2022/07/11 00:31:29;;;;;;;3.58;1.85;;;20.30;91.60;;;;;;5103466;28;20150;-69
2022/07/11 00:33:56;;;;;;;3.40;1.60;;;20.30;91.70;;;;;;5103176;28;20123;-68
2022/07/11 00:36:22;;;;;;;5.18;1.50;;;20.20;91.80;;;;;;5090714;28;20114;-68
2022/07/11 00:38:48;;;;;;;3.40;1.58;;;20.30;91.80;;;;;;5107463;28;20070;-68
2022/07/11 00:41:13;;;;;;;7.05;1.65;;;20.20;91.80;;;;;;5106164;28;20024;-69
2022/07/11 00:43:40;;;;;;;4.38;1.48;;;20.20;91.90;;;;;;5094218;28;20372;-69
2022/07/11 00:46:08;;;;;;;3.60;1.70;;;20.20;91.90;;;;;;5094685;28;20017;-68
2022/07/11 00:48:35;;;;;;;5.47;1.55;;;20.20;92.10;;;;;;5093699;28;20024;-69
2022/07/11 00:51:05;;;;;;;2.78;1.40;;;20.20;92.10;;;;;;5094405;28;20028;-68
2022/07/11 00:53:32;;;;;;;4.18;1.60;;;20.20;92.20;;;;;;5093284;28;20071;-69
2022/07/11 00:55:59;;;;;;;3.50;1.90;;;20.10;92.20;;;;;;5093231;28;20074;-69
2022/07/11 00:58:25;;;;;;;3.40;1.70;;;20.10;92.30;;;;;;5082589;28;20032;-68
2022/07/11 01:00:51;;;;;;;3.03;1.73;;;20.10;92.20;;;;;;5094563;28;20039;-68
2022/07/11 01:03:17;;;;;;;9.38;1.85;;;20.10;92.10;;;;;;5093343;28;20032;-69
2022/07/11 01:05:42;;;;;;;8.05;1.80;;;20.10;92.20;;;;;;5094551;28;20172;-68
2022/07/11 01:08:08;;;;;;;8.32;2.28;;;20.10;92.20;;;;;;5092812;28;20460;-69
2022/07/11 01:10:35;;;;;;;4.28;1.75;;;20.10;92.20;;;;;;5093233;28;20103;-68
2022/07/11 01:13:01;;;;;;;6.47;1.90;;;20.10;92.30;;;;;;5092770;28;20052;-69
2022/07/11 01:15:27;;;;;;;6.10;3.13;;;20.10;92.40;;;;;;5094080;28;20062;-68
2022/07/11 01:17:53;;;;;;;9.80;2.20;;;20.10;92.40;;;;;;5092042;28;20116;-69
2022/07/11 01:20:20;;;;;;;3.40;1.75;;;20.00;92.50;;;;;;5080969;28;20110;-68
2022/07/11 01:22:53;;;;;;;2.63;1.80;;;20.10;92.50;;;;;;5106139;28;20061;-69
2022/07/11 01:25:31;;;;;;;;;;;20.00;92.60;;;;;;5093851;28;20024;-68
2022/07/11 01:27:58;;;;;;;4.22;2.00;;;20.00;92.30;;;;;;5092866;28;19908;-68
2022/07/11 01:30:26;;;;;;;3.78;1.90;;;20.00;92.30;;;;;;5104687;28;20042;-68
2022/07/11 01:32:52;;;;;;;4.68;1.92;;;19.90;92.50;;;;;;5106890;28;20036;-68
2022/07/11 01:35:21;;;;;;;6.25;1.95;;;20.00;92.70;;;;;;5093787;28;20032;-68
2022/07/11 01:37:47;;;;;;;3.95;2.00;;;20.00;92.90;;;;;;5092664;28;20027;-68
2022/07/11 01:40:13;;;;;;;4.90;2.05;;;20.00;93.00;;;;;;5094356;28;20062;-68
2022/07/11 01:42:39;;;;;;;4.63;2.08;;;19.90;93.00;;;;;;5095662;28;20024;-68
2022/07/11 01:45:05;;;;;;;5.32;2.20;;;19.90;93.10;;;;;;5094121;28;20043;-69
2022/07/11 01:47:31;;;;;;;4.22;1.70;;;20.00;93.10;;;;;;5093147;28;20467;-68
2022/07/11 01:49:57;;;;;;;6.05;2.05;;;19.90;93.10;;;;;;5093614;28;20031;-68
2022/07/11 01:52:23;;;;;;;4.22;1.90;;;19.90;93.20;;;;;;5092741;28;20035;-68
2022/07/11 01:54:48;;;;;;;8.63;1.95;;;19.90;93.40;;;;;;5094088;28;20043;-68
2022/07/11 01:57:15;;;;;;;5.13;2.13;;;19.90;93.10;;;;;;5090978;28;20020;-68
2022/07/11 01:59:41;;;;;;;3.85;1.70;;;19.90;93.20;;;;;;5102454;28;20092;-69
2022/07/11 02:02:07;;;;;;;4.03;1.88;;;20.00;93.20;;;;;;5094520;28;20028;-68
2022/07/11 02:04:33;;;;;;;3.70;1.88;;;19.90;93.20;;;;;;5084949;28;20034;-68
2022/07/11 02:06:59;;;;;;;1.60;1.40;;;20.00;93.20;;;;;;5092603;28;20036;-68
2022/07/11 02:09:25;;;;;;;4.30;1.83;;;19.90;93.20;;;;;;5095984;28;20535;-69
2022/07/11 02:11:50;;;;;;;2.72;1.65;;;19.90;93.20;;;;;;5092474;28;20480;-68
2022/07/11 02:14:16;;;;;;;7.93;1.40;;;19.90;93.20;;;;;;5083499;28;20035;-69
2022/07/11 02:16:42;;;;;;;3.00;1.17;;;19.90;93.30;;;;;;5093552;28;20030;-68
2022/07/11 02:19:08;;;;;;;1.60;1.40;;;19.90;93.30;;;;;;5093401;28;20450;-68
2022/07/11 02:21:34;;;;;;;9.35;1.30;;;19.80;93.20;;;;;;5091622;28;20057;-68
2022/07/11 02:24:00;;;;;;;5.03;1.30;;;19.80;93.30;;;;;;5090250;28;20046;-69
2022/07/11 02:26:26;;;;;;;3.63;1.77;;;19.90;93.40;;;;;;5101892;28;20428;-69
2022/07/11 02:28:52;;;;;;;3.63;1.50;;;19.90;93.40;;;;;;5095430;28;20032;-69
2022/07/11 02:31:17;;;;;;;1.77;1.48;;;19.80;93.50;;;;;;5092834;28;20028;-68
2022/07/11 02:33:43;;;;;;;3.72;1.30;;;19.90;93.50;;;;;;5080012;28;21038;-68
2022/07/11 02:36:10;;;;;;;1.20;1.10;;;19.80;93.50;;;;;;5091229;28;20024;-68
2022/07/11 02:38:36;;;;;;;2.60;1.13;;;19.80;93.40;;;;;;5091343;28;20032;-69
2022/07/11 02:41:02;;;;;;;1.55;1.27;;;19.80;93.70;;;;;;5093699;28;20585;-68
2022/07/11 02:43:27;;;;;;;2.30;1.67;;;19.80;93.50;;;;;;5090479;28;20141;-69
2022/07/11 02:45:54;;;;;;;2.30;1.17;;;19.80;93.50;;;;;;5092837;28;20056;-69
2022/07/11 02:48:22;;;;;;;2.13;1.20;;;19.80;93.60;;;;;;5091864;28;20036;-68
2022/07/11 02:50:48;;;;;;;1.58;1.23;;;19.80;93.50;;;;;;5091502;28;20039;-69
2022/07/11 02:53:14;;;;;;;3.22;1.30;;;19.80;93.50;;;;;;5092500;28;20036;-68
2022/07/11 02:55:40;;;;;;;5.53;1.13;;;19.80;93.50;;;;;;5090981;28;20414;-69
2022/07/11 02:58:06;;;;;;;2.33;1.33;;;19.80;93.60;;;;;;5098076;28;20032;-68
2022/07/11 03:00:32;;;;;;;3.95;1.42;;;19.80;93.70;;;;;;5109900;28;20061;-70
2022/07/11 03:02:58;;;;;;;1.83;1.35;;;19.80;93.80;;;;;;5091664;28;20028;-68
2022/07/11 03:05:24;;;;;;;2.95;1.30;;;19.80;93.90;;;;;;5103875;28;20440;-69
2022/07/11 03:07:49;;;;;;;7.72;1.60;;;19.80;93.90;;;;;;5099884;28;20027;-68
2022/07/11 03:10:15;;;;;;;5.20;1.35;;;19.90;94.00;;;;;;5096420;28;20040;-68
2022/07/11 03:12:41;;;;;;;4.40;1.23;;;19.80;94.00;;;;;;5104385;28;20507;-69
2022/07/11 03:15:08;;;;;;;3.10;1.30;;;19.80;94.00;;;;;;5101624;28;20047;-69
2022/07/11 03:17:35;;;;;;;3.38;1.40;;;19.80;94.00;;;;;;5091336;28;20040;-68
2022/07/11 03:20:03;;;;;;;1.70;1.10;;;19.80;94.00;;;;;;5091001;28;20036;-69
2022/07/11 03:22:28;;;;;;;3.10;1.00;;;19.80;93.90;;;;;;5092309;28;20020;-69
2022/07/11 03:24:54;;;;;;;2.40;1.10;;;19.80;93.90;;;;;;5090479;28;20502;-69
2022/07/11 03:27:21;;;;;;;3.17;1.77;;;19.70;93.80;;;;;;5091969;28;20068;-69
2022/07/11 03:29:46;;;;;;;3.47;0.98;;;19.70;93.80;;;;;;5091256;28;20043;-70
2022/07/11 03:32:12;;;;;;;4.90;1.17;;;19.70;93.70;;;;;;5090968;28;20032;-69
2022/07/11 03:34:38;;;;;;;3.50;0.90;;;19.80;93.80;;;;;;5091003;28;20399;-69
2022/07/11 03:37:04;;;;;;;3.80;0.95;;;19.70;93.90;;;;;;5092388;28;20057;-69
2022/07/11 03:39:30;;;;;;;2.35;0.82;;;19.70;94.00;;;;;;5090464;28;20120;-69
2022/07/11 03:41:56;;;;;;;9.45;1.15;;;19.70;94.10;;;;;;5092267;28;20024;-69
2022/07/11 03:44:22;;;;;;;3.70;1.65;;;19.70;94.20;;;;;;5091119;28;20028;-69
2022/07/11 03:46:48;;;;;;;3.63;0.98;;;19.60;94.20;;;;;;5091615;28;20475;-69
2022/07/11 03:49:14;;;;;;;10.45;1.23;;;19.70;94.30;;;;;;5090537;28;20391;-68
2022/07/11 03:51:40;;;;;;;7.63;1.77;;;19.70;94.30;;;;;;5073034;28;20444;-69
2022/07/11 03:54:08;;;;;;;3.08;1.30;;;19.70;94.30;;;;;;5103602;28;20508;-69
2022/07/11 03:56:34;;;;;;;3.70;1.23;;;19.60;94.40;;;;;;5102449;28;20023;-69
2022/07/11 03:59:00;;;;;;;4.97;1.30;;;19.70;94.40;;;;;;5102632;28;20036;-69
2022/07/11 04:01:26;;;;;;;1.27;0.95;;;19.60;94.10;;;;;;5091479;28;20391;-68
2022/07/11 04:03:51;;;;;;;4.57;1.08;;;19.60;93.80;;;;;;5105311;28;20081;-69
2022/07/11 04:06:17;;;;;;;2.40;1.05;;;19.70;93.80;;;;;;5101127;28;20032;-69
2022/07/11 04:08:43;;;;;;;3.67;0.93;;;19.60;93.70;;;;;;5103480;28;20031;-69
2022/07/11 04:11:09;;;;;;;3.75;0.90;;;19.60;94.10;;;;;;5092197;28;20032;-69
2022/07/11 04:13:34;;;;;;;3.72;1.05;;;19.60;93.80;;;;;;5098115;28;20043;-69
2022/07/11 04:16:00;;;;;;;1.00;0.77;;;19.60;93.90;;;;;;5114905;28;20075;-69
2022/07/11 04:18:26;;;;;;;2.35;0.77;;;19.60;94.00;;;;;;5101191;28;20090;-69
2022/07/11 04:20:52;;;;;;;3.85;0.63;;;19.60;94.10;;;;;;5102594;28;20490;-69
2022/07/11 04:23:18;;;;;;;3.05;0.80;;;19.50;94.30;;;;;;5104487;28;20062;-68
2022/07/11 04:25:53;;;;;;;1.27;0.80;;;19.50;94.50;;;;;;5102702;28;20031;-69
2022/07/11 04:28:18;;;;;;;3.10;0.80;;;19.50;94.50;;;;;;5107727;28;20058;-70
2022/07/11 04:30:44;;;;;;;2.88;0.65;;;19.60;94.50;;;;;;5095097;28;20445;-69
2022/07/11 04:33:10;;;;;;;3.40;1.20;;;19.60;94.80;;;;;;5094511;28;20040;-69
2022/07/11 04:35:35;;;;;;;1.90;0.90;;;19.60;94.40;;;;;;5094897;28;20032;-69
2022/07/11 04:38:01;;;;;;;1.92;0.80;;;19.50;94.40;;;;;;5095142;28;20024;-69
2022/07/11 04:40:27;;;;;;;1.95;0.73;;;19.50;94.30;;;;;;5094827;28;20536;-69
2022/07/11 04:42:53;;;;;;;5.18;0.73;;;19.60;94.30;;;;;;5094539;28;20601;-69
2022/07/11 04:45:19;;;;;;;4.13;0.80;;;19.60;94.20;;;;;;5094464;28;20028;-69
2022/07/11 04:47:45;;;;;;;4.25;0.65;;;19.60;94.20;;;;;;5094685;28;20028;-69
2022/07/11 04:50:10;;;;;;;2.85;0.65;;;19.50;94.00;;;;;;5094485;28;20028;-69
2022/07/11 04:52:37;;;;;;;1.92;1.00;;;19.60;94.00;;;;;;5094682;28;20535;-69
2022/07/11 04:55:03;;;;;;;1.70;0.55;;;19.60;93.70;;;;;;5092516;28;20372;-69
2022/07/11 04:57:29;;;;;;;5.05;0.70;;;19.60;93.80;;;;;;5076291;28;20028;-69
2022/07/11 04:59:54;;;;;;;1.60;0.60;;;19.50;93.00;;;;;;5093388;28;20040;-69
2022/07/11 05:02:20;;;;;;;1.42;0.50;;;19.60;93.00;;;;;;5094335;28;20178;-69
2022/07/11 05:04:48;;;;;;;2.90;1.35;;;19.50;92.90;;;;;;5093366;28;20099;-69
2022/07/11 05:07:14;;;;;;;0.60;0.60;;;19.60;93.10;;;;;;5094373;28;20523;-69
2022/07/11 05:09:40;;;;;;;1.50;0.68;;;19.50;93.10;;;;;;5092660;28;20442;-69
2022/07/11 05:12:06;;;;;;;3.28;0.63;;;19.60;93.20;;;;;;5096345;28;20105;-69
2022/07/11 05:14:32;;;;;;;3.40;0.60;;;19.60;93.20;;;;;;5103785;28;20374;-68
2022/07/11 05:16:58;;;;;;;0.63;0.57;;;19.60;93.10;;;;;;5098722;28;20019;-69
2022/07/11 05:19:24;;;;;;;1.42;0.40;;;19.60;93.10;;;;;;5113809;28;20043;-69
2022/07/11 05:21:52;;;;;;;0.60;0.50;;;19.60;93.10;;;;;;5095235;28;20048;-72
2022/07/11 05:24:18;;;;;;;3.63;0.50;;;19.60;93.20;;;;;;5103957;28;20467;-70
2022/07/11 05:26:50;;;;;;;0.75;0.43;;;19.60;93.20;;;;;;5106577;28;20027;-69
2022/07/11 05:29:16;;;;;;;2.00;0.60;;;19.60;93.10;;;;;;5094728;28;20040;-68
2022/07/11 05:31:50;;;;;;;1.92;0.43;;;19.60;93.10;;;;;;5100439;28;20471;-69
2022/07/11 05:34:16;;;;;;;0.70;0.60;;;19.60;93.00;;;;;;5106952;28;20390;-68
2022/07/11 05:36:43;;;;;;;3.40;0.45;;;19.60;93.30;;;;;;5108862;28;20019;-69
2022/07/11 05:39:12;;;;;;;1.30;0.50;;;19.60;93.40;;;;;;5105114;28;20057;-70
2022/07/11 05:41:39;;;;;;;0.40;0.40;;;19.60;93.60;;;;;;5105770;28;20035;-68
2022/07/11 05:44:05;;;;;;;0.65;0.32;;;19.60;93.20;;;;;;5100830;28;20031;-68
2022/07/11 05:46:30;;;;;;;0.80;0.60;;;19.60;93.20;;;;;;5109786;28;20038;-70
2022/07/11 05:48:56;;;;;;;1.08;0.40;;;19.60;93.50;;;;;;5103466;28;20391;-69
2022/07/11 05:51:22;;;;;;;0.50;0.50;;;19.60;93.70;;;;;;5107447;28;20028;-70
2022/07/11 05:53:47;;;;;;;0.80;0.47;;;19.60;93.60;;;;;;5107915;28;20479;-71
2022/07/11 05:56:13;;;;;;;0.32;0.32;;;19.60;93.80;;;;;;5106184;28;20097;-70
2022/07/11 05:58:42;;;;;;;0.40;0.40;;;19.60;93.90;;;;;;5106837;28;20399;-68
2022/07/11 06:01:08;;;;;;;0.30;0.20;;;19.60;93.80;;;;;;5095908;28;20024;-68
2022/07/11 06:03:34;;;;;;;1.40;0.40;;;19.60;93.50;;;;;;5104405;28;21424;-69
2022/07/11 06:06:04;;;;;;;0.55;0.40;;;19.70;93.60;;;;;;5101808;28;21386;-68
2022/07/11 06:08:42;;;;;;;1.35;0.40;;;19.70;93.50;;;;;;5103256;28;20027;-68
2022/07/11 06:11:14;;;;;;;0.30;0.30;;;19.70;93.10;;;;;;5099297;28;20557;-68
2022/07/11 06:13:43;;;;;;;0.28;0.28;;;19.70;93.00;;;;;;5096922;28;20056;-68
2022/07/11 06:16:12;;;;;;;4.03;0.50;;;19.80;92.90;;;;;;5104206;28;20035;-69
2022/07/11 06:18:39;;;;;;;1.27;0.45;;;19.70;93.00;;;;;;5101136;28;20571;-72
2022/07/11 06:21:05;;;;;;;4.30;0.50;;;19.80;93.10;;;;;;5097485;28;20027;-69
2022/07/11 06:23:31;;;;;;;0.52;0.43;;;19.90;93.60;;;;;;5092750;28;20027;-69
2022/07/11 06:25:57;;;;;;;1.20;0.35;;;19.90;93.80;;;;;;5092701;28;20104;-69
2022/07/11 06:28:24;;;;;;;0.80;0.50;;;19.90;93.90;;;;;;5092514;28;20024;-69
2022/07/11 06:30:49;;;;;;;1.25;0.38;;;19.90;94.20;;;;;;5094179;28;20419;-69
2022/07/11 06:33:16;;;;;;;0.40;0.40;;;20.00;94.10;;;;;;5092094;28;20031;-69
2022/07/11 06:35:42;;;;;;;1.15;0.90;;;20.00;93.80;;;;;;5091048;28;20039;-69
2022/07/11 06:38:08;;;;;;;1.20;0.52;;;20.00;93.30;;;;;;5091771;28;20032;-69
2022/07/11 06:40:34;;;;;;;2.72;0.70;;;20.10;93.80;;;;;;5092267;28;20032;-69
2022/07/11 06:42:59;;;;;;;1.35;0.40;;;20.10;93.80;;;;;;5092830;28;20467;-69
2022/07/11 06:45:29;;;;;;;1.75;0.60;;;20.10;93.60;;;;;;5074416;28;20104;-69
2022/07/11 06:47:55;;;;;;;4.32;0.77;;;20.20;93.70;;;;;;5093967;28;20063;-67
2022/07/11 06:50:21;;;;;;;0.73;0.40;;;20.20;93.70;;;;;;5100198;28;20028;-69
2022/07/11 06:52:47;;;;;;;1.27;0.70;;;20.20;93.70;;;;;;5093490;28;20107;-69
2022/07/11 06:55:13;;;;;;;1.60;0.80;;;20.20;93.70;;;;;;5092152;28;20479;-69
2022/07/11 06:57:38;;;;;;;2.47;0.70;;;20.30;93.50;;;;;;5100708;28;20057;-69
2022/07/11 07:00:08;;;;;;;1.00;0.70;;;20.20;93.30;;;;;;5097357;28;20032;-69
2022/07/11 07:02:34;;;;;;;0.70;0.70;;;20.30;93.20;;;;;;5100013;28;20024;-69
2022/07/11 07:05:01;;;;;;;1.52;0.57;;;20.20;93.10;;;;;;5096326;28;20032;-69
2022/07/11 07:07:27;;;;;;;1.60;0.80;;;20.30;93.40;;;;;;5091903;28;20081;-69
2022/07/11 07:09:54;;;;;;;1.02;0.60;;;20.30;93.30;;;;;;5090487;28;20055;-69
2022/07/11 07:12:21;;;;;;;4.63;0.70;;;20.30;92.80;;;;;;5088555;28;20055;-69
2022/07/11 07:14:47;;;;;;;3.25;0.82;;;20.30;92.40;;;;;;5104140;28;20104;-69
2022/07/11 07:17:13;;;;;;;1.60;0.70;;;20.40;92.40;;;;;;5098593;28;20561;-69
2022/07/11 07:19:39;;;;;;;3.72;0.90;;;20.30;92.70;;;;;;5094983;28;20119;-69
2022/07/11 07:22:08;;;;;;;1.25;0.80;;;20.30;92.70;;;;;;5091761;28;20107;-69
2022/07/11 07:24:35;;;;;;;0.45;0.45;;;20.30;93.00;;;;;;5081531;28;20463;-69
2022/07/11 07:27:04;;;;;;;2.08;0.77;;;20.30;93.00;;;;;;5100641;28;20020;-69
2022/07/11 07:29:30;;;;;;;2.88;0.68;;;20.30;92.90;;;;;;5090690;28;20497;-69
2022/07/11 07:31:56;;;;;;;2.15;0.70;;;20.30;92.80;;;;;;5095662;28;20075;-69
2022/07/11 07:34:22;;;;;;;2.88;0.82;;;20.30;92.80;;;;;;5095477;28;20075;-69
2022/07/11 07:36:48;;;;;;;1.23;0.40;;;20.30;92.90;;;;;;5094734;28;20027;-69
2022/07/11 07:39:13;;;;;;;2.22;0.45;;;20.40;92.80;;;;;;5096716;28;20678;-69
2022/07/11 07:41:39;;;;;;;6.80;0.70;;;20.40;92.60;;;;;;5100451;28;20030;-69
2022/07/11 07:44:05;;;;;;;0.32;0.32;;;20.50;92.70;;;;;;5100365;28;20664;-69
2022/07/11 07:46:31;;;;;;;0.40;0.40;;;20.40;92.50;;;;;;5107036;28;20031;-69
2022/07/11 07:49:02;;;;;;;2.00;0.30;;;20.50;92.40;;;;;;5109504;28;20451;-69
2022/07/11 07:51:29;;;;;;;0.65;0.55;;;20.50;92.30;;;;;;5104695;28;20502;-69
2022/07/11 07:53:55;;;;;;;0.82;0.30;;;20.60;92.30;;;;;;5085607;28;20134;-69
2022/07/11 07:56:21;;;;;;;0.63;0.40;;;20.60;92.10;;;;;;5101184;28;20046;-69
2022/07/11 07:58:47;;;;;;;0.90;0.50;;;20.60;92.10;;;;;;5097864;28;20036;-69
2022/07/11 08:03:57;;;;;;;0.50;0.40;;;20.70;92.30;;;;;;5106900;28;20681;-69
2022/07/11 08:06:23;;;;;;;1.55;0.40;;;20.70;92.10;;;;;;5095035;28;20032;-69
2022/07/11 08:08:49;;;;;;;1.27;0.50;;;20.60;92.00;;;;;;5108226;28;20054;-69
2022/07/11 08:11:16;;;;;;;0.82;0.30;;;20.70;91.80;;;;;;5103750;28;20043;-69
2022/07/11 08:13:42;;;;;;;0.30;0.30;;;20.70;91.70;;;;;;5101254;28;20044;-69
2022/07/11 08:16:08;;;;;;;0.77;0.40;;;20.70;91.60;;;;;;5115431;28;20066;-69
2022/07/11 08:18:34;;;;;;;0.28;0.28;;;20.80;91.60;;;;;;5099917;28;20028;-69
2022/07/11 08:21:03;;;;;;;0.30;0.30;;;20.80;91.70;;;;;;5114786;28;20042;-69
2022/07/11 08:23:29;;;;;;;0.30;0.30;;;20.90;91.70;;;;;;5100641;28;20080;-69
2022/07/11 08:25:54;;;;;;;0.43;0.22;;;20.80;91.90;;;;;;5098844;28;20039;-69
2022/07/11 08:28:23;;;;;;;0.22;0.22;;;20.90;91.80;;;;;;5098485;28;20028;-69
2022/07/11 08:30:49;;;;;;;2.03;0.40;;;20.90;91.90;;;;;;5094765;28;20050;-69
2022/07/11 08:33:14;;;;;;;0.32;0.32;;;20.90;91.80;;;;;;5088758;28;20454;-69
2022/07/11 08:35:40;;;;;;;0.80;0.40;;;20.90;91.80;;;;;;5100952;28;21777;-70
2022/07/11 08:38:06;;;;;;;0.30;0.30;;;20.90;91.60;;;;;;5100613;28;20043;-67
2022/07/11 08:40:31;;;;;;;0.30;0.30;;;20.90;91.70;;;;;;5096349;28;20029;-67
2022/07/11 08:43:00;;;;;;;1.95;0.50;;;21.00;91.90;;;;;;5108730;28;20459;-67
2022/07/11 08:45:29;;;;;;;0.60;0.50;;;21.00;91.90;;;;;;5102216;28;20102;-68
2022/07/11 08:47:56;;;;;;;1.17;0.60;;;21.10;91.80;;;;;;5105806;28;20055;-68
2022/07/11 08:50:23;;;;;;;3.28;0.32;;;21.10;91.90;;;;;;5109462;28;20463;-68
2022/07/11 08:52:53;;;;;;;0.32;0.30;;;21.10;91.80;;;;;;5107457;28;20536;-68
2022/07/11 08:55:20;;;;;;;7.55;0.75;;;21.10;91.60;;;;;;5106998;28;20039;-68
2022/07/11 08:57:46;;;;;;;2.42;0.50;;;21.20;91.60;;;;;;5108145;28;20069;-68
2022/07/11 09:00:13;;;;;;;1.27;0.32;;;21.20;91.60;;;;;;5108480;28;20038;-68
2022/07/11 09:02:42;;;;;;;0.77;0.50;;;21.10;91.50;;;;;;5107488;28;20028;-68
2022/07/11 09:05:08;;;;;;;0.82;0.40;;;21.10;91.50;;;;;;5107561;28;20487;-68
2022/07/11 09:07:41;;;;;;;0.40;0.40;;;21.10;91.50;;;;;;5107595;28;20042;-68
2022/07/11 09:10:07;;;;;;;;;;;21.20;91.50;;;;;;5103635;28;20111;-68
2022/07/11 09:12:33;;;;;;;0.50;0.50;;;21.20;91.40;;;;;;5107409;28;19994;-68
2022/07/11 09:15:02;;;;;;;1.15;0.40;;;21.20;91.50;;;;;;5111371;28;20736;-69
2022/07/11 09:17:32;;;;;;;1.35;0.65;;;21.20;91.50;;;;;;5101128;28;20020;-68
2022/07/11 09:19:58;;;;;;;0.77;0.47;;;21.20;91.30;;;;;;5108842;28;20038;-69
2022/07/11 09:25:31;;;;;;;0.30;0.30;;;21.30;91.50;;;;;;5108427;28;20028;-68
2022/07/11 09:28:04;;;;;;;0.35;0.35;;;21.30;91.30;;;;;;5106709;28;20038;-69
2022/07/11 09:30:43;;;;;;;0.38;0.32;;;21.30;91.40;;;;;;5111373;28;20107;-68
2022/07/11 09:33:15;;;;;;;0.30;0.30;;;21.40;91.40;;;;;;5104618;28;20066;-67
2022/07/11 09:35:45;;;;;;;0.43;0.30;;;21.40;91.40;;;;;;5108586;28;20031;-71
2022/07/11 09:38:12;;;;;;;0.47;0.47;;;21.40;91.40;;;;;;5107698;28;20035;-71
2022/07/11 09:40:42;;;;;;;0.52;0.45;;;21.50;91.40;;;;;;5110087;28;20034;-70
2022/07/11 09:43:08;;;;;;;2.03;0.40;;;21.50;91.30;;;;;;5107548;28;20152;-69
2022/07/11 09:45:35;;;;;;;1.23;0.50;;;21.50;91.50;;;;;;5109941;28;20550;-69
2022/07/11 09:48:12;;;;;;;1.38;0.50;;;21.50;91.40;;;;;;5098881;28;20043;-69
2022/07/11 09:50:42;;;;;;;2.45;0.52;;;21.50;91.50;;;;;;5094713;28;20023;-68
2022/07/11 09:53:14;;;;;;;3.00;0.55;;;21.60;91.50;;;;;;5093143;28;20119;-69
2022/07/11 09:55:44;;;;;;;1.48;0.50;;;21.60;91.50;;;;;;5092969;28;20126;-69
2022/07/11 09:58:11;;;;;;;1.80;0.60;;;21.60;91.40;;;;;;5092423;28;20035;-70
2022/07/11 10:00:39;;;;;;;0.40;0.40;;;21.60;91.30;;;;;;5095901;28;20069;-69
2022/07/11 10:03:06;;;;;;;2.67;0.85;;;21.70;91.30;;;;;;5094751;28;20086;-68
2022/07/11 10:05:32;;;;;;;0.93;0.50;;;21.70;91.20;;;;;;5095295;28;20021;-70
2022/07/11 10:07:59;;;;;;;0.40;0.40;;;21.70;91.20;;;;;;5081893;28;20032;-70
2022/07/11 10:10:27;;;;;;;2.95;0.43;;;21.70;91.30;;;;;;5095988;28;20052;-69
2022/07/11 10:12:53;;;;;;;2.35;0.47;;;21.70;91.10;;;;;;5097627;28;20482;-69
2022/07/11 10:15:23;;;;;;;0.30;0.30;;;21.70;91.30;;;;;;5107135;28;20056;-69
2022/07/11 10:18:25;;;;;;;1.88;0.40;;;21.70;90.90;;;;;;5109109;28;20024;-70
2022/07/11 10:20:59;;;;;;;1.70;0.40;;;21.80;91.00;;;;;;5108448;28;20449;-70
2022/07/11 10:23:49;;;;;;;1.05;0.57;;;21.80;90.80;;;;;;5097549;28;20107;-68
2022/07/11 10:26:30;;;;;;;0.30;0.30;;;21.80;90.90;;;;;;5096278;28;20374;-69
2022/07/11 10:29:07;;;;;;;2.67;0.50;;;21.80;90.80;;;;;;5104459;28;20043;-67
2022/07/11 10:31:33;;;;;;;0.43;0.43;;;21.80;90.90;;;;;;5103847;28;20024;-67
2022/07/11 10:34:03;;;;;;;1.23;0.60;;;21.80;90.90;;;;;;5105719;28;20040;-67
2022/07/11 10:36:31;;;;;;;1.55;0.52;;;21.70;90.90;;;;;;5104168;28;20117;-67
2022/07/11 10:39:19;;;;;;;0.80;0.60;;;21.80;90.90;;;;;;5110346;28;20039;-68
2022/07/11 10:41:45;;;;;;;0.32;0.20;;;21.80;90.90;;;;;;5103253;28;20020;-67
2022/07/11 10:44:11;;;;;;;1.17;0.70;;;21.80;90.70;;;;;;5108815;28;20028;-67
2022/07/11 10:46:37;;;;;;;2.00;0.55;;;21.80;90.70;;;;;;5107853;28;20027;-67
2022/07/11 10:49:15;;;;;;;0.80;0.57;;;21.90;90.70;;;;;;5107676;28;20471;-67
2022/07/11 10:51:44;;;;;;;0.52;0.30;;;21.90;90.60;;;;;;5097648;28;20492;-67
2022/07/11 10:54:22;;;;;;;0.30;0.30;;;22.00;90.80;;;;;;5104147;28;20085;-67
2022/07/11 10:57:25;;;;;;;4.03;0.30;;;22.00;90.80;;;;;;5096982;28;20070;-67
2022/07/11 11:00:03;;;;;;;1.38;1.23;;;22.00;90.50;;;;;;5098742;28;20096;-67
2022/07/11 11:02:30;;;;;;;1.52;0.43;;;22.00;90.40;;;;;;5095435;28;20129;-67
2022/07/11 11:04:58;;;;;;;0.28;0.28;;;22.10;90.40;;;;;;5102320;28;20034;-67
2022/07/11 11:07:44;;;;;;;2.65;0.45;;;22.10;90.40;;;;;;5105303;28;20032;-67
2022/07/11 11:10:19;;;;;;;0.40;0.40;;;22.10;90.30;;;;;;5092986;28;20031;-70
2022/07/11 11:13:07;;;;;;;0.30;0.30;;;22.10;90.20;;;;;;5090275;28;20115;-70
2022/07/11 11:15:46;;;;;;;0.70;0.40;;;22.20;90.30;;;;;;5094115;28;20054;-70
2022/07/11 11:18:24;;;;;;;0.40;0.30;;;22.20;90.20;;;;;;5095700;28;20027;-71
2022/07/11 11:21:08;;;;;;;2.00;0.50;;;22.20;90.20;;;;;;5084567;28;20386;-70
2022/07/11 11:23:35;;;;;;;0.40;0.40;;;22.20;90.10;;;;;;5092268;28;20028;-71
2022/07/11 11:26:20;;;;;;;1.50;0.40;;;22.30;90.00;;;;;;5100392;28;20113;-70
2022/07/11 11:29:05;;;;;;;0.40;0.40;;;22.30;89.40;;;;;;5082799;28;20439;-67
2022/07/11 11:31:34;;;;;;;0.60;0.50;;;22.40;89.60;;;;;;5074163;28;20106;-67
2022/07/11 11:34:02;;;;;;;1.30;0.47;;;22.40;89.40;;;;;;5102148;28;20494;-67
2022/07/11 11:36:28;;;;;;;3.00;0.43;;;22.50;89.90;;;;;;5095585;28;20036;-68
2022/07/11 11:38:55;;;;;;;0.40;0.40;;;22.50;89.60;;;;;;5110729;28;20031;-67
2022/07/11 11:41:29;;;;;;;0.40;0.30;;;22.60;89.50;;;;;;5101351;28;20032;-68
2022/07/11 11:43:57;;;;;;;0.68;0.50;;;22.60;89.20;;;;;;5096483;28;20031;-67
2022/07/11 11:46:28;;;;;;;3.05;0.70;;;22.60;89.50;;;;;;5102990;28;20475;-68
2022/07/11 11:48:58;;;;;;;0.47;0.47;;;22.70;89.60;;;;;;5100695;28;20038;-67
2022/07/11 11:51:26;;;;;;;1.75;0.30;;;22.70;89.70;;;;;;5094357;28;20115;-67
2022/07/11 11:54:02;;;;;;;1.55;0.60;;;22.80;89.90;;;;;;5090769;28;20039;-68
2022/07/11 11:56:33;;;;;;;3.75;0.60;;;22.80;89.90;;;;;;5081852;28;20036;-67
2022/07/11 11:59:04;;;;;;;0.77;0.47;;;22.80;89.80;;;;;;5086945;28;20538;-67
2022/07/11 12:01:37;;;;;;;4.75;0.60;;;22.80;89.70;;;;;;5103618;28;20074;-67
2022/07/11 12:04:05;;;;;;;;;;;22.80;89.70;;;;;;5102338;28;20059;-68
2022/07/11 12:06:43;;;;;;;1.73;0.60;;;22.80;90.00;;;;;;5101460;28;19912;-66
2022/07/11 12:09:19;;;;;;;3.05;0.60;;;22.80;89.50;;;;;;5085565;28;20040;-66
2022/07/11 12:11:47;;;;;;;2.88;1.27;;;22.80;89.60;;;;;;5089588;28;20028;-66
2022/07/11 12:14:15;;;;;;;0.95;0.60;;;22.80;89.50;;;;;;5092610;28;20047;-67
2022/07/11 12:16:46;;;;;;;0.40;0.40;;;22.80;89.30;;;;;;5090831;28;20024;-68
2022/07/11 12:19:19;;;;;;;0.77;0.43;;;22.70;89.50;;;;;;5089579;28;20080;-67
2022/07/11 12:21:53;;;;;;;0.82;0.50;;;22.80;89.40;;;;;;5091816;28;20063;-67
2022/07/11 12:24:26;;;;;;;2.15;0.60;;;22.90;88.90;;;;;;5092570;28;20024;-68
2022/07/11 12:26:52;;;;;;;0.60;0.40;;;22.80;88.60;;;;;;5079354;28;20036;-68
2022/07/11 12:29:22;;;;;;;0.98;0.52;;;22.90;88.90;;;;;;5091955;28;20444;-67
2022/07/11 12:31:50;;;;;;;0.28;0.28;;;22.80;89.00;;;;;;5090485;28;20085;-67
2022/07/11 12:34:25;;;;;;;3.20;0.45;;;22.90;89.10;;;;;;5090972;28;20044;-67
2022/07/11 12:37:01;;;;;;;0.40;0.40;;;22.90;89.40;;;;;;5086024;28;20025;-67
2022/07/11 12:39:29;;;;;;;0.88;0.40;;;22.90;89.30;;;;;;5093650;28;20058;-67
2022/07/11 12:41:56;;;;;;;1.00;0.43;;;22.90;89.20;;;;;;5099851;28;20115;-67
2022/07/11 12:47:10;;;;;;;2.83;0.40;;;23.00;89.30;;;;;;5092349;28;20108;-67
2022/07/11 12:49:36;;;;;;;0.90;0.40;;;23.00;88.90;;;;;;5102892;28;20031;-67
2022/07/11 12:52:02;;;;;;;0.40;0.40;;;23.10;88.80;;;;;;5097996;28;20035;-68
2022/07/11 12:54:33;;;;;;;0.22;0.22;;;23.10;88.40;;;;;;5092586;28;20062;-68
2022/07/11 12:57:01;;;;;;;0.47;0.47;;;23.00;88.40;;;;;;5093652;28;20165;-68
2022/07/11 12:59:29;;;;;;;2.78;0.43;;;23.00;88.60;;;;;;5099183;28;20074;-68
2022/07/11 13:01:55;;;;;;;3.17;0.35;;;23.10;88.80;;;;;;5097598;28;20024;-67